Time;durP1;ratioP1;P1;durP2;ratioP2;P2;SDS_P1;SDS_P2;PMS_P1;PMS_P2;Temp;Humidity;BMP_temperature;BMP_pressure;BME280_temperature;BME280_humidity;BME280_pressure;Samples;Min_cycle;Max_cycle;Signal;HPM_P1;HPM_P2
2021/03/04 00:01:55;;;;;;;242.70;121.28;;;5.30;99.90;;;;;;4987741;28;20046;-77
2021/03/04 00:04:22;;;;;;;221.90;116.70;;;5.40;99.90;;;;;;4972830;28;20674;-77
2021/03/04 00:06:48;;;;;;;241.68;123.82;;;5.40;99.90;;;;;;4972009;28;20050;-76
2021/03/04 00:09:15;;;;;;;252.10;122.72;;;5.30;99.90;;;;;;4972488;28;20046;-76
2021/03/04 00:11:41;;;;;;;253.70;130.27;;;5.40;99.90;;;;;;4987875;28;20044;-76
2021/03/04 00:14:07;;;;;;;245.07;117.82;;;5.30;99.90;;;;;;4971660;28;20050;-76
2021/03/04 00:16:34;;;;;;;243.88;122.72;;;5.20;99.90;;;;;;4971725;28;20043;-76
2021/03/04 00:19:00;;;;;;;245.48;124.55;;;5.20;99.90;;;;;;4959399;28;20050;-76
2021/03/04 00:21:26;;;;;;;233.50;119.05;;;5.10;99.90;;;;;;4991543;28;20045;-76
2021/03/04 00:23:52;;;;;;;241.70;120.18;;;5.00;99.90;;;;;;5008427;28;20057;-76
2021/03/04 00:26:19;;;;;;;244.30;121.35;;;5.00;99.90;;;;;;4974595;28;20072;-76
2021/03/04 00:28:45;;;;;;;252.55;124.03;;;4.90;99.90;;;;;;5000887;28;20438;-77
2021/03/04 00:31:11;;;;;;;251.60;121.80;;;5.00;99.90;;;;;;4971827;28;20111;-77
2021/03/04 00:33:37;;;;;;;251.95;122.63;;;5.00;99.90;;;;;;4971742;28;20104;-76
2021/03/04 00:36:04;;;;;;;247.70;120.35;;;5.00;99.90;;;;;;4971311;28;20411;-76
2021/03/04 00:38:30;;;;;;;253.65;122.85;;;5.00;99.90;;;;;;4972112;28;20080;-76
2021/03/04 00:40:57;;;;;;;245.35;120.68;;;5.00;99.90;;;;;;4986975;28;20042;-77
2021/03/04 00:43:24;;;;;;;249.50;123.65;;;4.90;99.90;;;;;;5003980;28;20060;-77
2021/03/04 00:45:50;;;;;;;259.52;123.97;;;4.90;99.90;;;;;;4988155;28;20050;-76
2021/03/04 00:48:17;;;;;;;240.68;120.88;;;4.80;99.90;;;;;;4972229;28;20085;-76
2021/03/04 00:50:44;;;;;;;250.82;121.75;;;4.70;99.90;;;;;;4986663;28;20050;-76
2021/03/04 00:53:10;;;;;;;255.55;120.38;;;4.70;99.90;;;;;;4969281;28;20058;-76
2021/03/04 00:55:36;;;;;;;254.27;120.43;;;4.60;99.90;;;;;;4979260;28;20050;-76
2021/03/04 00:58:03;;;;;;;249.95;121.95;;;4.50;99.90;;;;;;4972048;28;20140;-76
2021/03/04 01:00:29;;;;;;;281.15;126.72;;;4.50;99.90;;;;;;4987481;28;20705;-76
2021/03/04 01:02:56;;;;;;;273.77;127.28;;;4.50;99.90;;;;;;4987747;28;20062;-76
2021/03/04 01:05:23;;;;;;;302.63;131.05;;;4.50;99.90;;;;;;4971204;28;20144;-76
2021/03/04 01:07:50;;;;;;;281.40;130.70;;;4.70;99.90;;;;;;4988158;28;20050;-76
2021/03/04 01:10:27;;;;;;;258.25;123.40;;;4.60;99.90;;;;;;4969373;28;20060;-76
2021/03/04 01:12:53;;;;;;;268.02;122.43;;;4.40;99.90;;;;;;4980466;28;20065;-76
2021/03/04 01:15:21;;;;;;;273.90;126.63;;;4.20;99.90;;;;;;4971039;28;20042;-77
2021/03/04 01:17:47;;;;;;;257.20;118.85;;;4.20;99.90;;;;;;4971379;28;20085;-76
2021/03/04 01:20:16;;;;;;;252.45;120.88;;;4.10;99.90;;;;;;4983781;28;20045;-76
2021/03/04 01:22:43;;;;;;;257.58;120.40;;;4.10;99.90;;;;;;4989298;28;20042;-78
2021/03/04 01:25:10;;;;;;;271.88;125.13;;;4.00;99.90;;;;;;4999675;28;20550;-76
2021/03/04 01:27:37;;;;;;;279.63;130.40;;;4.00;99.90;;;;;;4987596;28;20418;-77
2021/03/04 01:30:06;;;;;;;281.30;128.75;;;4.20;99.90;;;;;;4970377;28;20065;-76
2021/03/04 01:32:32;;;;;;;267.13;123.97;;;4.20;99.90;;;;;;4970695;28;20050;-76
2021/03/04 01:34:59;;;;;;;278.05;124.13;;;4.20;99.90;;;;;;4967178;28;20154;-76
2021/03/04 01:37:26;;;;;;;271.52;128.50;;;4.20;99.90;;;;;;4966801;28;20526;-76
2021/03/04 01:39:52;;;;;;;263.25;122.32;;;4.30;99.90;;;;;;4982437;28;20077;-76
2021/03/04 01:42:19;;;;;;;264.42;124.47;;;4.30;99.90;;;;;;4986314;28;20076;-76
2021/03/04 01:44:45;;;;;;;274.67;122.10;;;4.30;99.90;;;;;;4987526;28;20052;-76
2021/03/04 01:47:12;;;;;;;265.65;124.50;;;4.30;99.90;;;;;;4987079;28;20419;-77
2021/03/04 01:49:40;;;;;;;269.25;124.47;;;4.40;99.90;;;;;;4970480;28;20054;-76
2021/03/04 01:52:07;;;;;;;273.08;125.32;;;4.50;99.90;;;;;;4982709;28;20059;-76
2021/03/04 01:54:34;;;;;;;257.35;121.97;;;4.50;99.90;;;;;;4967382;28;20051;-77
2021/03/04 01:57:02;;;;;;;268.15;124.20;;;4.50;99.90;;;;;;4968562;28;20054;-76
2021/03/04 01:59:30;;;;;;;266.50;122.57;;;4.40;99.90;;;;;;4967927;28;20050;-77
2021/03/04 02:02:18;;;;;;;251.43;118.85;;;4.40;99.90;;;;;;4980333;28;20042;-76
2021/03/04 02:04:50;;;;;;;256.50;117.55;;;4.30;99.90;;;;;;4994195;28;20096;-75
2021/03/04 02:07:33;;;;;;;256.17;118.15;;;4.30;99.90;;;;;;4969616;28;20145;-76
2021/03/04 02:10:21;;;;;;;244.02;115.53;;;4.30;99.90;;;;;;4987760;28;20051;-75
2021/03/04 02:12:54;;;;;;;249.25;117.00;;;4.30;99.90;;;;;;4976977;28;20054;-76
2021/03/04 02:15:37;;;;;;;246.75;116.90;;;4.30;99.90;;;;;;4982950;28;20463;-76
2021/03/04 02:18:08;;;;;;;242.20;113.57;;;4.30;99.90;;;;;;4967199;28;20050;-76
2021/03/04 02:20:55;;;;;;;253.98;119.93;;;4.30;99.90;;;;;;4967633;28;20041;-77
2021/03/04 02:24:05;;;;;;;254.48;117.30;;;4.40;99.90;;;;;;4971972;28;20039;-76
2021/03/04 02:26:57;;;;;;;236.65;112.57;;;4.50;99.90;;;;;;4964210;28;20083;-76
2021/03/04 02:29:24;;;;;;;243.13;115.10;;;4.50;99.90;;;;;;4948479;28;20137;-77
2021/03/04 02:31:55;;;;;;;257.73;117.45;;;4.50;99.90;;;;;;4956867;28;20510;-76
2021/03/04 02:34:24;;;;;;;247.05;115.75;;;4.50;99.90;;;;;;4954044;28;20278;-76
2021/03/04 02:36:52;;;;;;;245.75;113.53;;;4.40;99.90;;;;;;4970121;28;20058;-76
2021/03/04 02:39:19;;;;;;;254.48;118.88;;;4.40;99.90;;;;;;4975347;28;20160;-75
2021/03/04 02:41:46;;;;;;;254.27;119.22;;;4.40;99.90;;;;;;4997704;28;20501;-75
2021/03/04 02:44:15;;;;;;;255.25;120.07;;;4.50;99.90;;;;;;5001118;28;20575;-76
2021/03/04 02:46:42;;;;;;;261.13;115.82;;;4.40;99.90;;;;;;4999019;28;20057;-76
2021/03/04 02:49:17;;;;;;;255.18;118.70;;;4.40;99.90;;;;;;4998728;28;20043;-76
2021/03/04 02:51:45;;;;;;;253.10;117.25;;;4.30;99.90;;;;;;5011031;28;20125;-76
2021/03/04 02:54:12;;;;;;;250.15;117.70;;;4.30;99.90;;;;;;4999292;28;20054;-76
2021/03/04 02:56:41;;;;;;;254.35;118.50;;;4.40;99.90;;;;;;4983118;28;20110;-75
2021/03/04 02:59:08;;;;;;;269.60;118.60;;;4.40;99.90;;;;;;4986491;28;20060;-76
2021/03/04 03:01:38;;;;;;;237.00;113.75;;;4.30;99.90;;;;;;5000353;28;20334;-76
2021/03/04 03:04:05;;;;;;;252.48;115.88;;;4.20;99.90;;;;;;5003562;28;20045;-75
2021/03/04 03:06:33;;;;;;;260.65;119.95;;;4.20;99.90;;;;;;4989767;28;20138;-77
2021/03/04 03:09:01;;;;;;;259.27;116.45;;;4.20;99.90;;;;;;4970111;28;20493;-76
2021/03/04 03:11:29;;;;;;;260.52;119.88;;;4.20;99.90;;;;;;4968947;28;20042;-77
2021/03/04 03:13:57;;;;;;;264.42;118.30;;;4.20;99.90;;;;;;4985344;28;20056;-77
2021/03/04 03:16:25;;;;;;;270.95;118.30;;;4.30;99.90;;;;;;4984987;28;20052;-77
2021/03/04 03:18:55;;;;;;;258.30;118.35;;;4.30;99.90;;;;;;4971173;28;20136;-77
2021/03/04 03:21:21;;;;;;;273.75;118.50;;;4.30;99.90;;;;;;5004327;28;20132;-77
2021/03/04 03:23:48;;;;;;;270.48;125.38;;;4.20;99.90;;;;;;5003440;28;20062;-76
2021/03/04 03:26:14;;;;;;;255.60;120.00;;;4.20;99.90;;;;;;4966534;28;20061;-77
2021/03/04 03:28:40;;;;;;;282.77;124.35;;;4.20;99.90;;;;;;4969285;28;20714;-77
2021/03/04 03:31:08;;;;;;;279.98;125.65;;;4.20;99.90;;;;;;4968857;28;20392;-77
2021/03/04 03:33:39;;;;;;;275.10;121.97;;;4.00;99.90;;;;;;4970433;28;20145;-77
2021/03/04 03:36:08;;;;;;;281.08;123.53;;;4.00;99.90;;;;;;4990110;28;20582;-76
2021/03/04 03:38:36;;;;;;;268.52;119.70;;;4.00;99.90;;;;;;4988795;28;20050;-77
2021/03/04 03:41:03;;;;;;;263.20;118.90;;;4.00;99.90;;;;;;5005699;28;20081;-76
2021/03/04 03:43:34;;;;;;;282.35;122.50;;;4.10;99.90;;;;;;4988562;28;20057;-76
2021/03/04 03:46:02;;;;;;;279.13;123.70;;;4.00;99.90;;;;;;4990587;28;20050;-76
2021/03/04 03:48:30;;;;;;;278.08;122.50;;;3.90;99.90;;;;;;4973986;28;20062;-76
2021/03/04 03:50:57;;;;;;;284.65;124.50;;;3.90;99.90;;;;;;4989090;28;20049;-76
2021/03/04 03:53:25;;;;;;;291.90;125.72;;;3.90;99.90;;;;;;4972448;28;20328;-77
2021/03/04 03:55:54;;;;;;;293.15;127.60;;;4.00;99.90;;;;;;4973594;28;20502;-77
2021/03/04 03:58:24;;;;;;;286.48;124.70;;;3.80;99.90;;;;;;4973089;28;20057;-76
2021/03/04 04:00:55;;;;;;;311.27;126.07;;;3.90;99.90;;;;;;4971719;28;20079;-76
2021/03/04 04:03:23;;;;;;;295.73;125.57;;;3.90;99.90;;;;;;4988599;28;20054;-76
2021/03/04 04:05:51;;;;;;;293.63;129.80;;;4.00;99.90;;;;;;4988797;28;20101;-76
2021/03/04 04:08:19;;;;;;;281.90;121.07;;;4.00;99.90;;;;;;4972771;28;20057;-76
2021/03/04 04:10:47;;;;;;;278.23;123.60;;;3.90;99.90;;;;;;4972568;28;20766;-76
2021/03/04 04:13:19;;;;;;;279.33;119.47;;;3.80;99.90;;;;;;4990204;28;20411;-77
2021/03/04 04:15:45;;;;;;;260.20;114.40;;;3.80;99.90;;;;;;4972206;28;20046;-77
2021/03/04 04:18:13;;;;;;;269.85;119.00;;;3.70;99.90;;;;;;4973439;28;20129;-77
2021/03/04 04:20:49;;;;;;;279.70;119.72;;;3.60;99.90;;;;;;5003680;28;20041;-77
2021/03/04 04:23:17;;;;;;;298.30;126.22;;;3.60;99.90;;;;;;4999379;28;20050;-76
2021/03/04 04:25:50;;;;;;;293.50;126.78;;;3.60;99.90;;;;;;4967004;28;20055;-77
2021/03/04 04:28:17;;;;;;;308.35;124.22;;;3.70;99.90;;;;;;4989950;28;20497;-77
2021/03/04 04:30:43;;;;;;;286.00;123.35;;;3.80;99.90;;;;;;5004536;28;20149;-77
2021/03/04 04:33:11;;;;;;;284.70;125.13;;;3.80;99.90;;;;;;4989117;28;20054;-79
2021/03/04 04:35:37;;;;;;;302.20;125.47;;;3.80;99.90;;;;;;4988189;28;20058;-78
2021/03/04 04:38:04;;;;;;;302.77;133.45;;;3.80;99.90;;;;;;4967590;28;20054;-77
2021/03/04 04:40:30;;;;;;;289.00;125.20;;;3.80;99.90;;;;;;4972985;28;20397;-77
2021/03/04 04:42:57;;;;;;;248.95;102.15;;;3.80;99.90;;;;;;4988332;28;20054;-77
2021/03/04 04:45:23;;;;;;;296.10;127.70;;;3.90;99.90;;;;;;4989728;28;20273;-78
2021/03/04 04:47:49;;;;;;;280.08;121.90;;;3.90;99.90;;;;;;4956914;28;20154;-78
2021/03/04 04:50:16;;;;;;;299.42;121.82;;;3.90;99.90;;;;;;4988452;28;20076;-78
2021/03/04 04:52:42;;;;;;;316.70;125.25;;;3.80;99.90;;;;;;4997633;28;20089;-78
2021/03/04 04:55:09;;;;;;;302.83;124.43;;;3.80;99.90;;;;;;4972204;28;20535;-76
2021/03/04 04:57:35;;;;;;;295.85;125.70;;;3.80;99.90;;;;;;4971823;28;20049;-77
2021/03/04 05:00:05;;;;;;;292.85;120.50;;;3.80;99.90;;;;;;4973001;28;20058;-78
2021/03/04 05:02:31;;;;;;;242.80;100.45;;;3.80;99.90;;;;;;4989036;28;20058;-78
2021/03/04 05:04:57;;;;;;;319.30;126.82;;;3.60;99.90;;;;;;4988880;28;20729;-78
2021/03/04 05:07:24;;;;;;;326.25;129.95;;;3.50;99.90;;;;;;4972067;28;20058;-78
2021/03/04 05:09:50;;;;;;;316.80;127.43;;;3.50;99.90;;;;;;4984605;28;20294;-78
2021/03/04 05:12:17;;;;;;;312.55;128.00;;;3.50;99.90;;;;;;4984694;28;20046;-77
2021/03/04 05:14:43;;;;;;;350.90;132.52;;;3.50;99.90;;;;;;4980702;28;20081;-77
2021/03/04 05:17:09;;;;;;;329.27;132.13;;;3.50;99.90;;;;;;4987577;28;20046;-78
2021/03/04 05:19:35;;;;;;;326.65;119.45;;;3.40;99.90;;;;;;4994955;28;20046;-77
2021/03/04 05:22:02;;;;;;;273.75;106.38;;;3.40;99.90;;;;;;4972570;28;20117;-77
2021/03/04 05:24:28;;;;;;;298.67;104.45;;;3.20;99.90;;;;;;4983153;28;20089;-77
2021/03/04 05:26:56;;;;;;;268.85;100.03;;;3.20;99.90;;;;;;4998979;28;20042;-78
2021/03/04 05:29:22;;;;;;;289.27;107.00;;;3.20;99.90;;;;;;4988318;28;20046;-78
2021/03/04 05:31:49;;;;;;;254.25;102.20;;;3.10;99.90;;;;;;4988608;28;20069;-78
2021/03/04 05:34:15;;;;;;;258.55;103.18;;;3.20;99.90;;;;;;4972236;28;20058;-78
2021/03/04 05:36:42;;;;;;;261.13;103.18;;;3.20;99.90;;;;;;4972219;28;20050;-78
2021/03/04 05:39:08;;;;;;;256.77;96.70;;;3.30;99.90;;;;;;4972280;28;20058;-78
2021/03/04 05:41:35;;;;;;;266.13;103.50;;;3.30;99.90;;;;;;4971714;28;20050;-78
2021/03/04 05:44:04;;;;;;;262.05;100.03;;;3.30;99.90;;;;;;4955386;28;20050;-79
2021/03/04 05:46:32;;;;;;;227.80;96.90;;;3.40;99.90;;;;;;4955467;28;20061;-78
2021/03/04 05:49:00;;;;;;;251.50;99.43;;;3.40;99.90;;;;;;4987743;28;20717;-77
2021/03/04 05:51:31;;;;;;;242.55;92.38;;;3.30;99.90;;;;;;4990065;28;20049;-77
2021/03/04 05:53:58;;;;;;;227.73;91.70;;;3.10;99.90;;;;;;4975124;28;20060;-78
2021/03/04 05:56:25;;;;;;;244.48;95.47;;;3.10;99.90;;;;;;4970446;28;20088;-78
2021/03/04 05:58:52;;;;;;;241.07;99.30;;;3.10;99.90;;;;;;4993671;28;20709;-77
2021/03/04 06:01:19;;;;;;;247.95;102.25;;;3.20;99.90;;;;;;4970676;28;20050;-77
2021/03/04 06:03:47;;;;;;;265.90;105.25;;;3.10;99.90;;;;;;4971817;28;20153;-78
2021/03/04 06:06:14;;;;;;;252.45;96.63;;;3.10;99.90;;;;;;4988037;28;20154;-77
2021/03/04 06:08:41;;;;;;;248.35;95.97;;;3.10;99.90;;;;;;4984168;28;20055;-78
2021/03/04 06:11:07;;;;;;;260.75;103.07;;;3.10;99.90;;;;;;4979792;28;20047;-78
2021/03/04 06:13:33;;;;;;;252.57;98.90;;;3.10;99.90;;;;;;4986693;28;20048;-78
2021/03/04 06:16:00;;;;;;;242.10;98.07;;;3.20;99.90;;;;;;4986514;28;20038;-77
2021/03/04 06:18:57;;;;;;;224.32;93.03;;;3.20;99.90;;;;;;4985563;28;20141;-77
2021/03/04 06:21:28;;;;;;;213.20;87.43;;;3.20;99.90;;;;;;4982118;28;20519;-78
2021/03/04 06:23:56;;;;;;;227.68;89.38;;;3.20;99.90;;;;;;4969809;28;20423;-78
2021/03/04 06:26:35;;;;;;;225.23;92.93;;;3.20;99.90;;;;;;4981978;28;20042;-77
2021/03/04 06:29:22;;;;;;;245.45;98.40;;;3.20;99.90;;;;;;4975783;28;20057;-77
2021/03/04 06:32:06;;;;;;;243.45;100.22;;;3.10;99.90;;;;;;4982791;28;20061;-78
2021/03/04 06:34:33;;;;;;;242.43;96.60;;;3.10;99.90;;;;;;4954139;28;20054;-79
2021/03/04 06:37:04;;;;;;;240.10;102.55;;;3.20;99.90;;;;;;4969029;28;20046;-77
2021/03/04 06:39:46;;;;;;;226.55;96.55;;;3.20;99.90;;;;;;4970500;28;20069;-78
2021/03/04 06:42:14;;;;;;;223.07;89.03;;;3.20;99.90;;;;;;4967167;28;20661;-77
2021/03/04 06:44:45;;;;;;;221.95;93.60;;;3.10;99.90;;;;;;4973340;28;20048;-77
2021/03/04 06:47:20;;;;;;;227.65;95.72;;;3.00;99.90;;;;;;4985755;28;20551;-78
2021/03/04 06:49:47;;;;;;;249.20;100.65;;;2.90;99.90;;;;;;4957389;28;20417;-77
2021/03/04 06:52:27;;;;;;;252.52;106.13;;;2.80;99.90;;;;;;4965869;28;20054;-78
2021/03/04 06:54:54;;;;;;;256.00;103.25;;;2.90;99.90;;;;;;4970914;28;20499;-77
2021/03/04 06:57:21;;;;;;;240.93;104.72;;;3.00;99.90;;;;;;4967905;28;20089;-77
2021/03/04 06:59:49;;;;;;;273.80;108.05;;;3.10;99.90;;;;;;4970422;28;20038;-78
2021/03/04 07:02:29;;;;;;;278.10;111.53;;;3.20;99.90;;;;;;4971920;28;20046;-77
2021/03/04 07:05:01;;;;;;;269.67;110.03;;;3.30;99.90;;;;;;5001350;28;20480;-77
2021/03/04 07:07:29;;;;;;;317.08;127.60;;;3.40;99.90;;;;;;4964328;28;20319;-77
2021/03/04 07:09:57;;;;;;;290.50;123.82;;;3.50;99.90;;;;;;4982955;28;20073;-78
2021/03/04 07:12:25;;;;;;;272.30;111.63;;;3.60;99.90;;;;;;4983692;28;20100;-78
2021/03/04 07:14:53;;;;;;;265.88;106.63;;;3.70;99.90;;;;;;4987015;28;20042;-79
2021/03/04 07:17:25;;;;;;;263.52;104.93;;;3.80;99.90;;;;;;4991011;28;20046;-77
2021/03/04 07:19:57;;;;;;;265.85;97.30;;;3.90;99.90;;;;;;4969761;28;20469;-77
2021/03/04 07:22:26;;;;;;;264.05;105.70;;;3.80;99.90;;;;;;4985525;28;20062;-77
2021/03/04 07:24:53;;;;;;;267.70;101.13;;;3.80;99.90;;;;;;4970645;28;20064;-77
2021/03/04 07:27:19;;;;;;;258.88;100.40;;;3.80;99.90;;;;;;4970250;28;20073;-77
2021/03/04 07:29:46;;;;;;;257.05;101.50;;;3.80;99.90;;;;;;4987978;28;20062;-77
2021/03/04 07:32:14;;;;;;;265.85;101.90;;;3.80;99.90;;;;;;4985411;28;20054;-77
2021/03/04 07:34:42;;;;;;;262.23;100.70;;;3.80;99.90;;;;;;5002854;28;20255;-77
2021/03/04 07:37:09;;;;;;;288.98;103.45;;;3.90;99.90;;;;;;4987111;28;20054;-77
2021/03/04 07:39:41;;;;;;;301.55;106.78;;;3.80;99.90;;;;;;4988024;28;20053;-79
2021/03/04 07:42:18;;;;;;;276.08;104.95;;;3.80;99.90;;;;;;4995823;28;20042;-78
2021/03/04 07:44:45;;;;;;;274.67;103.63;;;3.80;99.90;;;;;;4961131;28;20270;-78
2021/03/04 07:47:11;;;;;;;295.77;105.60;;;3.80;99.90;;;;;;4985882;28;20061;-78
2021/03/04 07:49:42;;;;;;;296.20;106.47;;;3.80;99.90;;;;;;4970406;28;20407;-78
2021/03/04 07:52:20;;;;;;;322.40;108.18;;;3.80;99.90;;;;;;4985439;28;20042;-78
2021/03/04 07:54:55;;;;;;;330.13;110.05;;;3.90;99.90;;;;;;4970803;28;20062;-78
2021/03/04 07:57:28;;;;;;;260.85;96.10;;;3.90;99.90;;;;;;4969722;28;20495;-77
2021/03/04 08:00:03;;;;;;;326.02;110.78;;;3.90;99.90;;;;;;4966708;28;20158;-77
2021/03/04 08:02:38;;;;;;;317.15;110.13;;;4.00;99.90;;;;;;4963976;28;20054;-78
2021/03/04 08:05:19;;;;;;;325.88;109.85;;;4.00;99.90;;;;;;4976736;28;20790;-77
2021/03/04 08:07:47;;;;;;;284.00;107.13;;;4.10;99.90;;;;;;4994417;28;20038;-76
2021/03/04 08:10:21;;;;;;;307.98;111.50;;;4.20;99.90;;;;;;4983772;28;20061;-77
2021/03/04 08:12:53;;;;;;;339.45;115.35;;;4.20;99.90;;;;;;4967892;28;20071;-77
2021/03/04 08:15:22;;;;;;;292.60;109.10;;;4.20;99.90;;;;;;4966550;28;20050;-77
2021/03/04 08:17:48;;;;;;;304.40;107.43;;;4.30;99.90;;;;;;4954213;28;20050;-77
2021/03/04 08:20:17;;;;;;;371.63;112.78;;;4.30;99.90;;;;;;4985757;28;20049;-77
2021/03/04 08:22:46;;;;;;;283.55;106.97;;;4.40;99.90;;;;;;4997956;28;20058;-77
2021/03/04 08:25:21;;;;;;;305.02;111.13;;;4.40;99.90;;;;;;5003806;28;20058;-77
2021/03/04 08:27:48;;;;;;;282.80;105.32;;;4.50;99.90;;;;;;4989320;28;20510;-77
2021/03/04 08:30:24;;;;;;;287.60;108.28;;;4.50;99.90;;;;;;4984442;28;20058;-77
2021/03/04 08:32:53;;;;;;;282.88;105.55;;;4.60;99.90;;;;;;4984969;28;20085;-77
2021/03/04 08:35:21;;;;;;;269.73;101.63;;;4.60;99.90;;;;;;4984510;28;20831;-77
2021/03/04 08:38:01;;;;;;;274.30;102.13;;;4.60;99.90;;;;;;4953302;28;20070;-76
2021/03/04 08:40:36;;;;;;;302.00;100.03;;;4.50;99.90;;;;;;4988073;28;20498;-77
2021/03/04 08:43:15;;;;;;;280.38;100.88;;;4.50;99.90;;;;;;4988544;28;20120;-79
2021/03/04 08:45:42;;;;;;;323.33;106.07;;;4.50;99.90;;;;;;4972328;28;20084;-78
2021/03/04 08:48:12;;;;;;;293.55;104.28;;;4.40;99.90;;;;;;4983696;28;20120;-78
2021/03/04 08:50:45;;;;;;;369.85;100.40;;;4.40;99.90;;;;;;4988298;28;20048;-78
2021/03/04 08:53:14;;;;;;;378.60;108.65;;;4.20;99.90;;;;;;4972072;28;20042;-79
2021/03/04 08:56:00;;;;;;;304.70;95.65;;;4.00;99.90;;;;;;4987951;28;20038;-80
2021/03/04 08:58:29;;;;;;;364.10;100.15;;;3.90;99.90;;;;;;4972905;28;20074;-78
2021/03/04 09:01:01;;;;;;;339.40;98.65;;;3.80;99.90;;;;;;4972541;28;20499;-79
2021/03/04 09:03:32;;;;;;;332.70;104.00;;;3.80;99.90;;;;;;4955501;28;20054;-79
2021/03/04 09:06:12;;;;;;;475.40;117.95;;;3.70;99.90;;;;;;4972440;28;20054;-78
2021/03/04 09:08:46;;;;;;;357.92;97.75;;;3.70;99.90;;;;;;4971968;28;20418;-78
2021/03/04 09:11:29;;;;;;;477.87;116.20;;;3.60;99.90;;;;;;4970406;28;20038;-78
2021/03/04 09:14:04;;;;;;;420.20;109.22;;;3.50;99.90;;;;;;4999903;28;20061;-79
2021/03/04 09:16:50;;;;;;;343.45;101.47;;;3.50;99.90;;;;;;4987650;28;20050;-78
2021/03/04 09:19:30;;;;;;;371.58;103.00;;;3.50;99.90;;;;;;4969284;28;20125;-77
2021/03/04 09:22:04;;;;;;;437.55;112.65;;;3.50;99.90;;;;;;5002427;28;20042;-78
2021/03/04 09:24:32;;;;;;;523.40;122.05;;;3.60;99.90;;;;;;4972342;28;20499;-78
2021/03/04 09:27:03;;;;;;;446.92;106.93;;;3.70;99.90;;;;;;4970743;28;20050;-78
2021/03/04 09:29:32;;;;;;;512.38;115.38;;;3.70;99.90;;;;;;4967808;28;20647;-78
2021/03/04 09:31:58;;;;;;;445.00;109.78;;;3.70;99.90;;;;;;4980770;28;20063;-77
2021/03/04 09:34:42;;;;;;;380.77;100.07;;;3.70;99.90;;;;;;4992727;28;20057;-79
2021/03/04 09:37:13;;;;;;;492.83;115.13;;;3.70;99.90;;;;;;4974504;28;20507;-79
2021/03/04 09:39:44;;;;;;;545.80;118.38;;;3.80;99.90;;;;;;4971879;28;20450;-79
2021/03/04 09:42:12;;;;;;;543.75;111.68;;;3.60;99.90;;;;;;4970999;28;20097;-78
2021/03/04 09:44:50;;;;;;;461.33;105.63;;;3.50;99.90;;;;;;4989459;28;20133;-79
2021/03/04 09:47:24;;;;;;;434.02;95.60;;;3.50;99.90;;;;;;4967474;28;20416;-78
2021/03/04 09:49:55;;;;;;;482.17;100.30;;;3.50;99.90;;;;;;4984255;28;20055;-78
2021/03/04 09:52:27;;;;;;;554.85;107.97;;;3.50;99.90;;;;;;4966572;28;20051;-79
2021/03/04 09:55:08;;;;;;;568.05;110.93;;;3.50;99.90;;;;;;4951893;28;20057;-79
2021/03/04 09:57:41;;;;;;;540.05;109.30;;;3.50;99.90;;;;;;4967435;28;20063;-79
2021/03/04 10:00:18;;;;;;;449.73;98.40;;;3.50;99.90;;;;;;4967916;28;20129;-78
2021/03/04 10:02:49;;;;;;;526.63;109.25;;;3.60;99.90;;;;;;4968825;28;20057;-79
2021/03/04 10:05:17;;;;;;;540.67;106.65;;;3.60;99.90;;;;;;4975804;28;20529;-78
2021/03/04 10:07:44;;;;;;;558.25;114.88;;;3.60;99.90;;;;;;4979824;28;20137;-79
2021/03/04 10:10:18;;;;;;;569.67;113.93;;;3.60;99.90;;;;;;4967262;28;20131;-78
2021/03/04 10:12:56;;;;;;;452.27;92.63;;;3.70;99.90;;;;;;4978990;28;20042;-78
2021/03/04 10:15:33;;;;;;;519.60;100.55;;;3.80;99.90;;;;;;4995890;28;20046;-78
2021/03/04 10:18:11;;;;;;;557.58;108.85;;;3.80;99.90;;;;;;4959057;28;20451;-77
2021/03/04 10:20:41;;;;;;;504.52;98.32;;;3.70;99.90;;;;;;4971447;28;20166;-78
2021/03/04 10:23:08;;;;;;;569.97;109.43;;;3.70;99.90;;;;;;4970219;28;20543;-78
2021/03/04 10:25:35;;;;;;;529.65;100.65;;;3.60;99.90;;;;;;4968884;28;20061;-78
2021/03/04 10:28:03;;;;;;;520.83;101.05;;;3.70;99.90;;;;;;4970585;28;20104;-79
2021/03/04 10:30:30;;;;;;;521.33;104.78;;;3.70;99.90;;;;;;4986989;28;20133;-78
2021/03/04 10:32:57;;;;;;;636.58;110.80;;;3.60;99.90;;;;;;4987673;28;20101;-76
2021/03/04 10:35:24;;;;;;;699.75;113.63;;;3.60;99.90;;;;;;4985475;28;20573;-76
2021/03/04 10:37:51;;;;;;;438.27;87.38;;;3.70;99.90;;;;;;4985474;28;20053;-78
2021/03/04 10:40:19;;;;;;;540.67;89.82;;;3.60;99.90;;;;;;4986678;28;20062;-76
2021/03/04 10:42:46;;;;;;;674.63;102.90;;;3.50;99.90;;;;;;4985341;28;20042;-76
2021/03/04 10:45:15;;;;;;;527.78;91.75;;;3.50;99.90;;;;;;4969276;28;20526;-77
2021/03/04 10:47:42;;;;;;;527.40;88.55;;;3.50;99.90;;;;;;4986368;28;20411;-76
2021/03/04 10:50:11;;;;;;;545.38;94.70;;;3.40;99.90;;;;;;4969104;28;20527;-75
2021/03/04 10:52:38;;;;;;;721.42;113.07;;;3.40;99.90;;;;;;4985813;28;20427;-76
2021/03/04 10:55:07;;;;;;;606.35;102.60;;;3.40;99.90;;;;;;4979858;28;20133;-76
2021/03/04 10:57:34;;;;;;;506.60;95.03;;;3.50;99.90;;;;;;4982414;28;20053;-76
2021/03/04 11:00:00;;;;;;;513.42;99.72;;;3.50;99.90;;;;;;4966619;28;20047;-76
2021/03/04 11:02:27;;;;;;;510.23;99.03;;;3.50;99.90;;;;;;4965584;28;20059;-76
2021/03/04 11:04:53;;;;;;;590.53;105.40;;;3.60;99.90;;;;;;4982483;28;20117;-76
2021/03/04 11:07:20;;;;;;;562.53;104.05;;;3.60;99.90;;;;;;4966351;28;20075;-78
2021/03/04 11:09:46;;;;;;;515.90;90.60;;;3.70;99.90;;;;;;4987604;28;20051;-75
2021/03/04 11:12:12;;;;;;;591.72;101.93;;;3.60;99.90;;;;;;4978403;28;20043;-78
2021/03/04 11:14:39;;;;;;;555.17;103.95;;;3.50;99.90;;;;;;4970163;28;20034;-76
2021/03/04 11:17:05;;;;;;;484.30;93.45;;;3.50;99.90;;;;;;4984852;28;20133;-75
2021/03/04 11:19:32;;;;;;;368.15;73.90;;;3.60;99.90;;;;;;5003148;28;20047;-77
2021/03/04 11:21:58;;;;;;;599.33;100.30;;;3.60;99.90;;;;;;4980177;28;20051;-76
2021/03/04 11:24:25;;;;;;;553.50;99.10;;;3.50;99.90;;;;;;4983204;28;20483;-77
2021/03/04 11:26:52;;;;;;;535.50;95.57;;;3.60;99.90;;;;;;4968756;28;20078;-76
2021/03/04 11:29:18;;;;;;;543.13;94.63;;;3.70;99.90;;;;;;4968820;28;20050;-76
2021/03/04 11:31:45;;;;;;;656.55;110.53;;;3.70;99.90;;;;;;4968524;28;20478;-76
2021/03/04 11:34:12;;;;;;;543.83;91.30;;;3.80;99.90;;;;;;4986548;28;20495;-77
2021/03/04 11:36:39;;;;;;;437.88;85.15;;;3.80;99.90;;;;;;4978542;28;20053;-76
2021/03/04 11:39:06;;;;;;;470.40;93.85;;;3.70;99.90;;;;;;4970229;28;20140;-77
2021/03/04 11:41:32;;;;;;;544.72;106.40;;;3.70;99.90;;;;;;4986636;28;20058;-76
2021/03/04 11:43:59;;;;;;;609.72;111.35;;;3.70;99.90;;;;;;4968120;28;20182;-76
2021/03/04 11:46:25;;;;;;;594.42;102.82;;;3.80;99.90;;;;;;4951189;28;20066;-76
2021/03/04 11:48:53;;;;;;;521.22;94.25;;;3.60;99.90;;;;;;4967009;28;20057;-76
2021/03/04 11:51:20;;;;;;;557.25;102.65;;;3.50;99.90;;;;;;4965562;28;20512;-75
2021/03/04 11:53:47;;;;;;;475.38;92.05;;;3.30;99.90;;;;;;4964924;28;20092;-74
2021/03/04 11:56:22;;;;;;;521.00;95.55;;;3.40;99.90;;;;;;4969221;28;20058;-75
2021/03/04 11:58:50;;;;;;;553.95;103.40;;;3.50;99.90;;;;;;4969618;28;20587;-75
2021/03/04 12:01:17;;;;;;;509.00;96.78;;;3.70;99.90;;;;;;4968934;28;20158;-75
2021/03/04 12:03:43;;;;;;;501.20;94.22;;;3.70;99.90;;;;;;4970663;28;20058;-76
2021/03/04 12:06:10;;;;;;;548.50;103.28;;;3.80;99.90;;;;;;5006422;28;20046;-78
2021/03/04 12:08:36;;;;;;;358.63;76.13;;;3.80;99.90;;;;;;4992136;28;20676;-76
2021/03/04 12:11:22;;;;;;;436.35;81.03;;;3.80;99.90;;;;;;4971588;28;20050;-76
2021/03/04 12:13:49;;;;;;;399.27;77.93;;;3.70;99.90;;;;;;4971556;28;20050;-75
2021/03/04 12:16:15;;;;;;;422.52;83.97;;;3.80;99.90;;;;;;4971382;28;20046;-76
2021/03/04 12:18:42;;;;;;;361.13;72.70;;;3.90;99.90;;;;;;5005466;28;20213;-76
2021/03/04 12:21:08;;;;;;;305.42;64.60;;;3.70;99.90;;;;;;4990602;28;20069;-75
2021/03/04 12:23:34;;;;;;;395.75;73.40;;;3.70;99.90;;;;;;5007377;28;20066;-75
2021/03/04 12:26:01;;;;;;;358.77;69.72;;;3.70;99.90;;;;;;5005509;28;20080;-75
2021/03/04 12:28:42;;;;;;;461.40;81.18;;;3.70;99.90;;;;;;5017088;28;20456;-75
2021/03/04 12:31:08;;;;;;;506.85;92.93;;;3.70;99.90;;;;;;4987873;28;20046;-76